sensor_id;sensor_type;location;lat;lon;timestamp;temperature;humidity
45765;DHT22;31474;45.332;10.230;2022-12-18T00:02:16;6.90;99.90
45765;DHT22;31474;45.332;10.230;2022-12-18T00:04:42;7.00;99.90
45765;DHT22;31474;45.332;10.230;2022-12-18T00:07:08;6.90;99.90
45765;DHT22;31474;45.332;10.230;2022-12-18T00:09:33;6.90;99.90
45765;DHT22;31474;45.332;10.230;2022-12-18T00:11:59;6.90;99.90
45765;DHT22;31474;45.332;10.230;2022-12-18T00:14:24;6.90;99.90
45765;DHT22;31474;45.332;10.230;2022-12-18T00:16:50;6.90;99.90
45765;DHT22;31474;45.332;10.230;2022-12-18T00:19:16;6.90;99.90
45765;DHT22;31474;45.332;10.230;2022-12-18T00:21:42;6.90;99.90
45765;DHT22;31474;45.332;10.230;2022-12-18T00:24:10;6.90;99.90
45765;DHT22;31474;45.332;10.230;2022-12-18T00:26:37;6.90;99.90
45765;DHT22;31474;45.332;10.230;2022-12-18T00:29:10;6.90;99.90
45765;DHT22;31474;45.332;10.230;2022-12-18T00:31:37;6.90;99.90
45765;DHT22;31474;45.332;10.230;2022-12-18T00:34:03;6.90;99.90
45765;DHT22;31474;45.332;10.230;2022-12-18T00:36:33;6.90;99.90
45765;DHT22;31474;45.332;10.230;2022-12-18T00:39:02;6.90;99.90
45765;DHT22;31474;45.332;10.230;2022-12-18T00:41:28;6.90;99.90
45765;DHT22;31474;45.332;10.230;2022-12-18T00:44:14;6.90;99.90
45765;DHT22;31474;45.332;10.230;2022-12-18T00:46:41;6.80;99.90
45765;DHT22;31474;45.332;10.230;2022-12-18T00:49:07;6.80;99.90
45765;DHT22;31474;45.332;10.230;2022-12-18T00:51:33;6.80;99.90
45765;DHT22;31474;45.332;10.230;2022-12-18T00:53:58;6.80;99.90
45765;DHT22;31474;45.332;10.230;2022-12-18T00:56:24;6.80;99.90
45765;DHT22;31474;45.332;10.230;2022-12-18T00:58:50;6.70;99.90
45765;DHT22;31474;45.332;10.230;2022-12-18T01:01:16;6.70;99.90
45765;DHT22;31474;45.332;10.230;2022-12-18T01:03:42;6.70;99.90
45765;DHT22;31474;45.332;10.230;2022-12-18T01:06:10;6.60;99.90
45765;DHT22;31474;45.332;10.230;2022-12-18T01:08:37;6.60;99.90
45765;DHT22;31474;45.332;10.230;2022-12-18T01:11:08;6.60;99.90
45765;DHT22;31474;45.332;10.230;2022-12-18T01:13:34;6.50;99.90
45765;DHT22;31474;45.332;10.230;2022-12-18T01:16:00;6.50;99.90
45765;DHT22;31474;45.332;10.230;2022-12-18T01:18:26;6.50;99.90
45765;DHT22;31474;45.332;10.230;2022-12-18T01:20:51;6.50;99.90
45765;DHT22;31474;45.332;10.230;2022-12-18T01:23:17;6.60;99.90
45765;DHT22;31474;45.332;10.230;2022-12-18T01:25:43;6.50;99.90
45765;DHT22;31474;45.332;10.230;2022-12-18T01:28:08;6.50;99.90
45765;DHT22;31474;45.332;10.230;2022-12-18T01:30:34;6.50;99.90
45765;DHT22;31474;45.332;10.230;2022-12-18T01:32:59;6.60;99.90
45765;DHT22;31474;45.332;10.230;2022-12-18T01:35:25;6.60;99.90
45765;DHT22;31474;45.332;10.230;2022-12-18T01:37:54;6.60;99.90
45765;DHT22;31474;45.332;10.230;2022-12-18T01:40:20;6.60;99.90
45765;DHT22;31474;45.332;10.230;2022-12-18T01:42:51;6.60;99.90
45765;DHT22;31474;45.332;10.230;2022-12-18T01:45:30;6.60;99.90
45765;DHT22;31474;45.332;10.230;2022-12-18T01:48:01;6.60;99.90
45765;DHT22;31474;45.332;10.230;2022-12-18T01:50:36;6.50;99.90
45765;DHT22;31474;45.332;10.230;2022-12-18T01:53:11;6.50;99.90
45765;DHT22;31474;45.332;10.230;2022-12-18T01:55:41;6.50;99.90
45765;DHT22;31474;45.332;10.230;2022-12-18T01:58:08;6.50;99.90
45765;DHT22;31474;45.332;10.230;2022-12-18T02:00:34;6.50;99.90
45765;DHT22;31474;45.332;10.230;2022-12-18T02:03:00;6.50;99.90
45765;DHT22;31474;45.332;10.230;2022-12-18T02:18:40;6.40;99.90
45765;DHT22;31474;45.332;10.230;2022-12-18T02:24:33;6.30;99.90
45765;DHT22;31474;45.332;10.230;2022-12-18T02:27:04;6.40;99.90
45765;DHT22;31474;45.332;10.230;2022-12-18T02:29:53;6.30;99.90
45765;DHT22;31474;45.332;10.230;2022-12-18T02:32:35;6.40;99.90
45765;DHT22;31474;45.332;10.230;2022-12-18T02:35:04;6.40;99.90
45765;DHT22;31474;45.332;10.230;2022-12-18T02:37:32;6.30;99.90
45765;DHT22;31474;45.332;10.230;2022-12-18T02:39:59;6.40;99.90
45765;DHT22;31474;45.332;10.230;2022-12-18T02:42:25;6.30;99.90
45765;DHT22;31474;45.332;10.230;2022-12-18T02:44:51;6.30;99.90
45765;DHT22;31474;45.332;10.230;2022-12-18T02:47:23;6.30;99.90
45765;DHT22;31474;45.332;10.230;2022-12-18T02:55:24;6.30;99.90
45765;DHT22;31474;45.332;10.230;2022-12-18T02:58:09;6.30;99.90
45765;DHT22;31474;45.332;10.230;2022-12-18T03:03:16;6.40;99.90
45765;DHT22;31474;45.332;10.230;2022-12-18T03:06:18;6.40;99.90
45765;DHT22;31474;45.332;10.230;2022-12-18T03:08:49;6.40;99.90
45765;DHT22;31474;45.332;10.230;2022-12-18T03:11:16;6.30;99.90
45765;DHT22;31474;45.332;10.230;2022-12-18T03:14:02;6.30;99.90
45765;DHT22;31474;45.332;10.230;2022-12-18T03:16:31;6.30;99.90
45765;DHT22;31474;45.332;10.230;2022-12-18T03:19:04;6.40;99.90
45765;DHT22;31474;45.332;10.230;2022-12-18T03:21:53;6.40;99.90
45765;DHT22;31474;45.332;10.230;2022-12-18T03:24:20;6.40;99.90
45765;DHT22;31474;45.332;10.230;2022-12-18T03:26:50;6.40;99.90
45765;DHT22;31474;45.332;10.230;2022-12-18T03:29:42;6.40;99.90
45765;DHT22;31474;45.332;10.230;2022-12-18T03:32:16;6.40;99.90
45765;DHT22;31474;45.332;10.230;2022-12-18T03:34:47;6.40;99.90
45765;DHT22;31474;45.332;10.230;2022-12-18T03:37:14;6.40;99.90
45765;DHT22;31474;45.332;10.230;2022-12-18T03:39:40;6.40;99.90
45765;DHT22;31474;45.332;10.230;2022-12-18T03:42:15;6.40;99.90
45765;DHT22;31474;45.332;10.230;2022-12-18T03:47:27;6.40;99.90
45765;DHT22;31474;45.332;10.230;2022-12-18T03:52:40;6.40;99.90
45765;DHT22;31474;45.332;10.230;2022-12-18T03:55:09;6.40;99.90
45765;DHT22;31474;45.332;10.230;2022-12-18T03:57:35;6.40;99.90
45765;DHT22;31474;45.332;10.230;2022-12-18T04:00:13;6.40;99.90
45765;DHT22;31474;45.332;10.230;2022-12-18T04:02:43;6.40;99.90
45765;DHT22;31474;45.332;10.230;2022-12-18T04:05:11;6.50;99.90
45765;DHT22;31474;45.332;10.230;2022-12-18T04:07:38;6.50;99.90
45765;DHT22;31474;45.332;10.230;2022-12-18T04:10:06;6.40;99.90
45765;DHT22;31474;45.332;10.230;2022-12-18T04:12:32;6.40;99.90
45765;DHT22;31474;45.332;10.230;2022-12-18T04:14:58;6.40;99.90
45765;DHT22;31474;45.332;10.230;2022-12-18T04:17:24;6.40;99.90
45765;DHT22;31474;45.332;10.230;2022-12-18T04:19:50;6.40;99.90
45765;DHT22;31474;45.332;10.230;2022-12-18T04:22:16;6.40;99.90
45765;DHT22;31474;45.332;10.230;2022-12-18T04:24:42;6.40;99.90
45765;DHT22;31474;45.332;10.230;2022-12-18T04:27:07;6.40;99.90
45765;DHT22;31474;45.332;10.230;2022-12-18T04:29:33;6.40;99.90
45765;DHT22;31474;45.332;10.230;2022-12-18T04:31:59;6.30;99.90
45765;DHT22;31474;45.332;10.230;2022-12-18T04:34:24;6.40;99.90
45765;DHT22;31474;45.332;10.230;2022-12-18T04:36:50;6.40;99.90
45765;DHT22;31474;45.332;10.230;2022-12-18T04:39:16;6.30;99.90
45765;DHT22;31474;45.332;10.230;2022-12-18T04:41:42;6.30;99.90
45765;DHT22;31474;45.332;10.230;2022-12-18T04:44:07;6.30;99.90
45765;DHT22;31474;45.332;10.230;2022-12-18T04:46:33;6.30;99.90
45765;DHT22;31474;45.332;10.230;2022-12-18T04:48:59;6.30;99.90
45765;DHT22;31474;45.332;10.230;2022-12-18T04:51:24;6.30;99.90
45765;DHT22;31474;45.332;10.230;2022-12-18T04:53:50;6.30;99.90
45765;DHT22;31474;45.332;10.230;2022-12-18T04:56:16;6.20;99.90
45765;DHT22;31474;45.332;10.230;2022-12-18T04:58:43;6.20;99.90
45765;DHT22;31474;45.332;10.230;2022-12-18T05:01:10;6.20;99.90
45765;DHT22;31474;45.332;10.230;2022-12-18T05:03:37;6.20;99.90
45765;DHT22;31474;45.332;10.230;2022-12-18T05:06:04;6.20;99.90
45765;DHT22;31474;45.332;10.230;2022-12-18T05:08:30;6.20;99.90
45765;DHT22;31474;45.332;10.230;2022-12-18T05:11:10;6.10;99.90
45765;DHT22;31474;45.332;10.230;2022-12-18T05:13:37;6.10;99.90
45765;DHT22;31474;45.332;10.230;2022-12-18T05:16:04;6.20;99.90
45765;DHT22;31474;45.332;10.230;2022-12-18T05:18:30;6.10;99.90
45765;DHT22;31474;45.332;10.230;2022-12-18T05:20:56;6.10;99.90
45765;DHT22;31474;45.332;10.230;2022-12-18T05:23:23;6.10;99.90
45765;DHT22;31474;45.332;10.230;2022-12-18T05:25:56;6.10;99.90
45765;DHT22;31474;45.332;10.230;2022-12-18T05:28:23;6.10;99.90
45765;DHT22;31474;45.332;10.230;2022-12-18T05:30:56;6.10;99.90
45765;DHT22;31474;45.332;10.230;2022-12-18T05:33:24;6.10;99.90
45765;DHT22;31474;45.332;10.230;2022-12-18T05:35:55;6.10;99.90
45765;DHT22;31474;45.332;10.230;2022-12-18T05:38:22;6.10;99.90
45765;DHT22;31474;45.332;10.230;2022-12-18T05:40:49;6.00;99.90
45765;DHT22;31474;45.332;10.230;2022-12-18T05:43:15;6.00;99.90
45765;DHT22;31474;45.332;10.230;2022-12-18T05:45:41;6.00;99.90
45765;DHT22;31474;45.332;10.230;2022-12-18T05:48:09;6.00;99.90
45765;DHT22;31474;45.332;10.230;2022-12-18T05:50:37;6.00;99.90
45765;DHT22;31474;45.332;10.230;2022-12-18T05:53:04;6.00;99.90
45765;DHT22;31474;45.332;10.230;2022-12-18T05:55:33;6.10;99.90
45765;DHT22;31474;45.332;10.230;2022-12-18T05:57:59;6.10;99.90
45765;DHT22;31474;45.332;10.230;2022-12-18T06:00:25;6.10;99.90
45765;DHT22;31474;45.332;10.230;2022-12-18T06:02:51;6.10;99.90
45765;DHT22;31474;45.332;10.230;2022-12-18T06:05:17;6.00;99.90
45765;DHT22;31474;45.332;10.230;2022-12-18T06:07:42;6.00;99.90
45765;DHT22;31474;45.332;10.230;2022-12-18T06:10:08;6.00;99.90
45765;DHT22;31474;45.332;10.230;2022-12-18T06:12:34;6.10;99.90
45765;DHT22;31474;45.332;10.230;2022-12-18T06:15:00;6.10;99.90
45765;DHT22;31474;45.332;10.230;2022-12-18T06:17:30;6.10;99.90
45765;DHT22;31474;45.332;10.230;2022-12-18T06:19:56;6.00;99.90
45765;DHT22;31474;45.332;10.230;2022-12-18T06:22:21;6.10;99.90
45765;DHT22;31474;45.332;10.230;2022-12-18T06:24:47;6.10;99.90
45765;DHT22;31474;45.332;10.230;2022-12-18T06:27:13;6.10;99.90
45765;DHT22;31474;45.332;10.230;2022-12-18T06:29:39;6.10;99.90
45765;DHT22;31474;45.332;10.230;2022-12-18T06:32:05;6.00;99.90
45765;DHT22;31474;45.332;10.230;2022-12-18T06:34:31;5.90;99.90
45765;DHT22;31474;45.332;10.230;2022-12-18T06:36:57;6.00;99.90
45765;DHT22;31474;45.332;10.230;2022-12-18T06:39:23;6.00;99.90
45765;DHT22;31474;45.332;10.230;2022-12-18T06:41:48;6.00;99.90
45765;DHT22;31474;45.332;10.230;2022-12-18T06:44:14;6.00;99.90
45765;DHT22;31474;45.332;10.230;2022-12-18T06:46:40;6.00;99.90
45765;DHT22;31474;45.332;10.230;2022-12-18T06:49:06;6.00;99.90
45765;DHT22;31474;45.332;10.230;2022-12-18T06:51:32;6.00;99.90
45765;DHT22;31474;45.332;10.230;2022-12-18T06:53:57;6.00;99.90
45765;DHT22;31474;45.332;10.230;2022-12-18T06:56:23;6.00;99.90
45765;DHT22;31474;45.332;10.230;2022-12-18T06:58:48;6.00;99.90
45765;DHT22;31474;45.332;10.230;2022-12-18T07:01:14;6.00;99.90
45765;DHT22;31474;45.332;10.230;2022-12-18T07:03:40;6.10;99.90
45765;DHT22;31474;45.332;10.230;2022-12-18T07:06:06;6.00;99.90
45765;DHT22;31474;45.332;10.230;2022-12-18T07:08:38;6.00;99.90
45765;DHT22;31474;45.332;10.230;2022-12-18T07:11:04;6.10;99.90
45765;DHT22;31474;45.332;10.230;2022-12-18T07:13:30;6.10;99.90
45765;DHT22;31474;45.332;10.230;2022-12-18T07:16:13;6.10;99.90
45765;DHT22;31474;45.332;10.230;2022-12-18T07:18:39;6.10;99.90
45765;DHT22;31474;45.332;10.230;2022-12-18T07:21:06;6.10;99.90
45765;DHT22;31474;45.332;10.230;2022-12-18T07:23:33;6.10;99.90
45765;DHT22;31474;45.332;10.230;2022-12-18T07:26:11;6.10;99.90
45765;DHT22;31474;45.332;10.230;2022-12-18T07:28:39;6.20;99.90
45765;DHT22;31474;45.332;10.230;2022-12-18T07:31:07;6.20;99.90
45765;DHT22;31474;45.332;10.230;2022-12-18T07:33:33;6.20;99.90
45765;DHT22;31474;45.332;10.230;2022-12-18T07:36:04;6.20;99.90
45765;DHT22;31474;45.332;10.230;2022-12-18T07:38:32;6.30;99.90
45765;DHT22;31474;45.332;10.230;2022-12-18T07:41:01;6.30;99.90
45765;DHT22;31474;45.332;10.230;2022-12-18T07:43:28;6.30;99.90
45765;DHT22;31474;45.332;10.230;2022-12-18T07:45:54;6.30;99.90
45765;DHT22;31474;45.332;10.230;2022-12-18T07:48:19;6.30;99.90
45765;DHT22;31474;45.332;10.230;2022-12-18T07:50:45;6.40;99.90
45765;DHT22;31474;45.332;10.230;2022-12-18T07:53:11;6.30;99.90
45765;DHT22;31474;45.332;10.230;2022-12-18T07:55:36;6.30;99.90
45765;DHT22;31474;45.332;10.230;2022-12-18T07:58:05;6.40;99.90
45765;DHT22;31474;45.332;10.230;2022-12-18T08:00:31;6.40;99.90
45765;DHT22;31474;45.332;10.230;2022-12-18T08:02:57;6.40;99.90
45765;DHT22;31474;45.332;10.230;2022-12-18T08:05:23;6.40;99.90
45765;DHT22;31474;45.332;10.230;2022-12-18T08:07:49;6.40;99.90
45765;DHT22;31474;45.332;10.230;2022-12-18T08:10:15;6.40;99.90
45765;DHT22;31474;45.332;10.230;2022-12-18T08:12:40;6.40;99.90
45765;DHT22;31474;45.332;10.230;2022-12-18T08:15:06;6.50;99.90
45765;DHT22;31474;45.332;10.230;2022-12-18T08:17:32;6.50;99.90
45765;DHT22;31474;45.332;10.230;2022-12-18T08:19:58;6.50;99.90
45765;DHT22;31474;45.332;10.230;2022-12-18T08:22:24;6.60;99.90
45765;DHT22;31474;45.332;10.230;2022-12-18T08:24:50;6.60;99.90
45765;DHT22;31474;45.332;10.230;2022-12-18T08:27:15;6.60;99.90
45765;DHT22;31474;45.332;10.230;2022-12-18T08:29:41;6.60;99.90
45765;DHT22;31474;45.332;10.230;2022-12-18T08:32:06;6.60;99.90
45765;DHT22;31474;45.332;10.230;2022-12-18T08:34:32;6.70;99.90
45765;DHT22;31474;45.332;10.230;2022-12-18T08:36:58;6.70;99.90
45765;DHT22;31474;45.332;10.230;2022-12-18T08:39:24;6.70;99.90
45765;DHT22;31474;45.332;10.230;2022-12-18T08:41:49;6.70;99.90
45765;DHT22;31474;45.332;10.230;2022-12-18T08:44:33;6.70;99.90
45765;DHT22;31474;45.332;10.230;2022-12-18T08:47:06;6.80;99.90
45765;DHT22;31474;45.332;10.230;2022-12-18T08:49:32;6.80;99.90
45765;DHT22;31474;45.332;10.230;2022-12-18T08:51:58;6.80;99.90
45765;DHT22;31474;45.332;10.230;2022-12-18T08:54:24;6.90;99.90
45765;DHT22;31474;45.332;10.230;2022-12-18T08:56:49;6.80;99.90
45765;DHT22;31474;45.332;10.230;2022-12-18T08:59:19;6.80;99.90
45765;DHT22;31474;45.332;10.230;2022-12-18T09:01:45;6.80;99.90
45765;DHT22;31474;45.332;10.230;2022-12-18T09:04:12;6.80;99.90
45765;DHT22;31474;45.332;10.230;2022-12-18T09:06:37;6.80;99.90
45765;DHT22;31474;45.332;10.230;2022-12-18T09:09:04;6.90;99.90
45765;DHT22;31474;45.332;10.230;2022-12-18T09:11:30;6.90;99.90
45765;DHT22;31474;45.332;10.230;2022-12-18T09:13:57;7.00;99.90
45765;DHT22;31474;45.332;10.230;2022-12-18T09:16:24;7.10;99.90
45765;DHT22;31474;45.332;10.230;2022-12-18T09:18:50;7.20;99.90
45765;DHT22;31474;45.332;10.230;2022-12-18T09:21:19;7.30;99.90
45765;DHT22;31474;45.332;10.230;2022-12-18T09:23:53;7.30;99.90
45765;DHT22;31474;45.332;10.230;2022-12-18T09:26:19;7.40;99.90
45765;DHT22;31474;45.332;10.230;2022-12-18T09:28:45;7.40;99.90
45765;DHT22;31474;45.332;10.230;2022-12-18T09:31:12;7.50;99.90
45765;DHT22;31474;45.332;10.230;2022-12-18T09:33:37;7.60;99.90
45765;DHT22;31474;45.332;10.230;2022-12-18T09:36:05;7.50;99.90
45765;DHT22;31474;45.332;10.230;2022-12-18T09:38:32;7.60;99.90
45765;DHT22;31474;45.332;10.230;2022-12-18T09:41:03;7.60;99.90
45765;DHT22;31474;45.332;10.230;2022-12-18T09:43:37;7.70;99.90
45765;DHT22;31474;45.332;10.230;2022-12-18T09:46:10;7.70;99.90
45765;DHT22;31474;45.332;10.230;2022-12-18T09:48:49;7.70;99.90
45765;DHT22;31474;45.332;10.230;2022-12-18T09:53:47;7.80;99.90
45765;DHT22;31474;45.332;10.230;2022-12-18T09:56:18;8.00;99.90
45765;DHT22;31474;45.332;10.230;2022-12-18T09:59:33;8.20;99.90
45765;DHT22;31474;45.332;10.230;2022-12-18T10:01:39;8.20;99.90
45765;DHT22;31474;45.332;10.230;2022-12-18T10:04:08;8.30;99.90
45765;DHT22;31474;45.332;10.230;2022-12-18T10:06:51;8.40;99.90
45765;DHT22;31474;45.332;10.230;2022-12-18T10:09:59;8.60;99.90
45765;DHT22;31474;45.332;10.230;2022-12-18T10:12:38;8.70;99.90
45765;DHT22;31474;45.332;10.230;2022-12-18T10:15:23;8.80;99.90
45765;DHT22;31474;45.332;10.230;2022-12-18T10:18:21;8.90;99.90
45765;DHT22;31474;45.332;10.230;2022-12-18T10:20:53;8.90;99.90
45765;DHT22;31474;45.332;10.230;2022-12-18T10:26:09;8.90;99.90
45765;DHT22;31474;45.332;10.230;2022-12-18T10:28:39;8.90;99.90
45765;DHT22;31474;45.332;10.230;2022-12-18T10:31:06;8.80;99.90
45765;DHT22;31474;45.332;10.230;2022-12-18T10:33:33;8.90;99.90
45765;DHT22;31474;45.332;10.230;2022-12-18T10:36:00;8.90;99.90
45765;DHT22;31474;45.332;10.230;2022-12-18T10:38:31;8.90;99.90
45765;DHT22;31474;45.332;10.230;2022-12-18T10:41:06;9.00;99.90
45765;DHT22;31474;45.332;10.230;2022-12-18T10:43:38;9.00;99.90
45765;DHT22;31474;45.332;10.230;2022-12-18T10:51:06;9.10;99.90
45765;DHT22;31474;45.332;10.230;2022-12-18T10:53:35;9.20;99.90
45765;DHT22;31474;45.332;10.230;2022-12-18T10:56:03;9.20;99.90
45765;DHT22;31474;45.332;10.230;2022-12-18T10:58:37;9.20;99.90
45765;DHT22;31474;45.332;10.230;2022-12-18T11:01:14;9.30;99.90
45765;DHT22;31474;45.332;10.230;2022-12-18T11:03:44;9.20;99.90
45765;DHT22;31474;45.332;10.230;2022-12-18T11:08:39;9.20;99.90
45765;DHT22;31474;45.332;10.230;2022-12-18T11:11:15;9.20;99.90
45765;DHT22;31474;45.332;10.230;2022-12-18T11:13:57;9.20;99.90
45765;DHT22;31474;45.332;10.230;2022-12-18T11:16:24;9.30;99.90
45765;DHT22;31474;45.332;10.230;2022-12-18T11:18:51;9.30;99.90
45765;DHT22;31474;45.332;10.230;2022-12-18T11:21:16;9.30;99.90
45765;DHT22;31474;45.332;10.230;2022-12-18T11:23:53;9.30;99.90
45765;DHT22;31474;45.332;10.230;2022-12-18T11:26:19;9.30;99.90
45765;DHT22;31474;45.332;10.230;2022-12-18T11:29:09;9.40;99.90
45765;DHT22;31474;45.332;10.230;2022-12-18T11:31:35;9.50;99.90
45765;DHT22;31474;45.332;10.230;2022-12-18T11:34:24;9.60;99.90
45765;DHT22;31474;45.332;10.230;2022-12-18T11:36:52;9.70;99.90
45765;DHT22;31474;45.332;10.230;2022-12-18T11:39:51;9.80;99.90
45765;DHT22;31474;45.332;10.230;2022-12-18T11:45:18;9.90;99.90
45765;DHT22;31474;45.332;10.230;2022-12-18T11:47:57;10.00;99.90
45765;DHT22;31474;45.332;10.230;2022-12-18T11:50:51;10.10;99.90
45765;DHT22;31474;45.332;10.230;2022-12-18T11:53:18;10.10;99.90
45765;DHT22;31474;45.332;10.230;2022-12-18T11:58:41;10.10;99.90
45765;DHT22;31474;45.332;10.230;2022-12-18T12:06:26;10.10;99.90
45765;DHT22;31474;45.332;10.230;2022-12-18T12:09:05;10.10;99.90
45765;DHT22;31474;45.332;10.230;2022-12-18T12:16:54;10.20;99.90
45765;DHT22;31474;45.332;10.230;2022-12-18T12:30:00;10.20;99.90
45765;DHT22;31474;45.332;10.230;2022-12-18T12:33:13;10.30;99.90
45765;DHT22;31474;45.332;10.230;2022-12-18T12:38:26;10.30;99.90
45765;DHT22;31474;45.332;10.230;2022-12-18T12:41:20;10.30;99.90
45765;DHT22;31474;45.332;10.230;2022-12-18T12:44:09;10.30;99.90
45765;DHT22;31474;45.332;10.230;2022-12-18T12:46:41;10.40;99.90
45765;DHT22;31474;45.332;10.230;2022-12-18T12:49:17;10.40;99.90
45765;DHT22;31474;45.332;10.230;2022-12-18T12:51:47;10.40;99.90
45765;DHT22;31474;45.332;10.230;2022-12-18T12:54:21;10.30;99.90
45765;DHT22;31474;45.332;10.230;2022-12-18T12:56:51;10.30;99.90
45765;DHT22;31474;45.332;10.230;2022-12-18T12:59:27;10.40;99.90
45765;DHT22;31474;45.332;10.230;2022-12-18T13:04:45;10.30;99.90
45765;DHT22;31474;45.332;10.230;2022-12-18T13:07:23;10.40;99.90
45765;DHT22;31474;45.332;10.230;2022-12-18T13:20:42;10.30;99.90
45765;DHT22;31474;45.332;10.230;2022-12-18T13:25:56;10.20;99.90
45765;DHT22;31474;45.332;10.230;2022-12-18T13:31:12;10.10;99.90
45765;DHT22;31474;45.332;10.230;2022-12-18T13:33:43;10.00;99.90
45765;DHT22;31474;45.332;10.230;2022-12-18T13:41:45;9.80;99.90
45765;DHT22;31474;45.332;10.230;2022-12-18T13:44:31;9.80;99.90
45765;DHT22;31474;45.332;10.230;2022-12-18T13:46:59;9.70;99.90
45765;DHT22;31474;45.332;10.230;2022-12-18T13:49:39;9.70;99.90
45765;DHT22;31474;45.332;10.230;2022-12-18T13:52:19;9.60;99.90
45765;DHT22;31474;45.332;10.230;2022-12-18T13:54:56;9.60;99.90
45765;DHT22;31474;45.332;10.230;2022-12-18T13:57:41;9.50;99.90
45765;DHT22;31474;45.332;10.230;2022-12-18T14:00:23;9.50;99.90
45765;DHT22;31474;45.332;10.230;2022-12-18T14:02:50;9.40;99.90
45765;DHT22;31474;45.332;10.230;2022-12-18T14:05:29;9.30;99.90
45765;DHT22;31474;45.332;10.230;2022-12-18T14:08:10;9.30;99.90
45765;DHT22;31474;45.332;10.230;2022-12-18T14:10:44;9.20;99.90
45765;DHT22;31474;45.332;10.230;2022-12-18T14:13:14;9.20;99.90
45765;DHT22;31474;45.332;10.230;2022-12-18T14:15:46;9.10;99.90
45765;DHT22;31474;45.332;10.230;2022-12-18T14:18:20;9.00;99.90
45765;DHT22;31474;45.332;10.230;2022-12-18T14:20:48;9.00;99.90
45765;DHT22;31474;45.332;10.230;2022-12-18T14:23:41;8.90;99.90
45765;DHT22;31474;45.332;10.230;2022-12-18T14:26:27;8.90;99.90
45765;DHT22;31474;45.332;10.230;2022-12-18T14:29:00;8.80;99.90
45765;DHT22;31474;45.332;10.230;2022-12-18T14:31:28;8.70;99.90
45765;DHT22;31474;45.332;10.230;2022-12-18T14:33:54;8.60;99.90
45765;DHT22;31474;45.332;10.230;2022-12-18T14:36:23;8.50;99.90
45765;DHT22;31474;45.332;10.230;2022-12-18T14:38:57;8.40;99.90
45765;DHT22;31474;45.332;10.230;2022-12-18T14:41:23;8.40;99.90
45765;DHT22;31474;45.332;10.230;2022-12-18T14:43:51;8.40;99.90
45765;DHT22;31474;45.332;10.230;2022-12-18T14:46:35;8.30;99.90
45765;DHT22;31474;45.332;10.230;2022-12-18T14:49:04;8.30;99.90
45765;DHT22;31474;45.332;10.230;2022-12-18T14:51:32;8.20;99.90
45765;DHT22;31474;45.332;10.230;2022-12-18T14:54:01;8.20;99.90
45765;DHT22;31474;45.332;10.230;2022-12-18T14:56:33;8.10;99.90
45765;DHT22;31474;45.332;10.230;2022-12-18T14:59:06;8.10;99.90
45765;DHT22;31474;45.332;10.230;2022-12-18T15:01:45;8.10;99.90
45765;DHT22;31474;45.332;10.230;2022-12-18T15:04:42;8.00;99.90
45765;DHT22;31474;45.332;10.230;2022-12-18T15:07:22;8.00;99.90
45765;DHT22;31474;45.332;10.230;2022-12-18T15:12:34;7.90;99.90
45765;DHT22;31474;45.332;10.230;2022-12-18T15:15:00;7.80;99.90
45765;DHT22;31474;45.332;10.230;2022-12-18T15:17:25;7.70;99.90
45765;DHT22;31474;45.332;10.230;2022-12-18T15:19:58;7.70;99.90
45765;DHT22;31474;45.332;10.230;2022-12-18T15:22:27;7.70;99.90
45765;DHT22;31474;45.332;10.230;2022-12-18T15:24:55;7.70;99.90
45765;DHT22;31474;45.332;10.230;2022-12-18T15:27:24;7.60;99.90
45765;DHT22;31474;45.332;10.230;2022-12-18T15:32:39;7.50;99.90
45765;DHT22;31474;45.332;10.230;2022-12-18T15:37:41;7.50;99.90
45765;DHT22;31474;45.332;10.230;2022-12-18T15:40:12;7.40;99.90
45765;DHT22;31474;45.332;10.230;2022-12-18T15:42:38;7.40;99.90
45765;DHT22;31474;45.332;10.230;2022-12-18T15:45:22;7.30;99.90
45765;DHT22;31474;45.332;10.230;2022-12-18T15:47:48;7.30;99.90
45765;DHT22;31474;45.332;10.230;2022-12-18T15:50:14;7.30;99.90
45765;DHT22;31474;45.332;10.230;2022-12-18T15:52:43;7.30;99.90
45765;DHT22;31474;45.332;10.230;2022-12-18T15:55:13;7.20;99.90
45765;DHT22;31474;45.332;10.230;2022-12-18T15:57:58;7.20;99.90
45765;DHT22;31474;45.332;10.230;2022-12-18T16:00:24;7.30;99.90
45765;DHT22;31474;45.332;10.230;2022-12-18T16:02:49;7.20;99.90
45765;DHT22;31474;45.332;10.230;2022-12-18T16:05:16;7.20;99.90
45765;DHT22;31474;45.332;10.230;2022-12-18T16:07:43;7.20;99.90
45765;DHT22;31474;45.332;10.230;2022-12-18T16:10:09;7.20;99.90
45765;DHT22;31474;45.332;10.230;2022-12-18T16:12:35;7.20;99.90
45765;DHT22;31474;45.332;10.230;2022-12-18T16:15:03;7.20;99.90
45765;DHT22;31474;45.332;10.230;2022-12-18T16:17:29;7.20;99.90
45765;DHT22;31474;45.332;10.230;2022-12-18T16:19:55;7.20;99.90
45765;DHT22;31474;45.332;10.230;2022-12-18T16:22:29;7.20;99.90
45765;DHT22;31474;45.332;10.230;2022-12-18T16:24:56;7.20;99.90
45765;DHT22;31474;45.332;10.230;2022-12-18T16:27:23;7.10;99.90
45765;DHT22;31474;45.332;10.230;2022-12-18T16:29:49;7.10;99.90
45765;DHT22;31474;45.332;10.230;2022-12-18T16:32:19;7.10;99.90
45765;DHT22;31474;45.332;10.230;2022-12-18T16:34:45;7.10;99.90
45765;DHT22;31474;45.332;10.230;2022-12-18T16:37:13;7.10;99.90
45765;DHT22;31474;45.332;10.230;2022-12-18T16:39:41;7.00;99.90
45765;DHT22;31474;45.332;10.230;2022-12-18T16:42:17;7.10;99.90
45765;DHT22;31474;45.332;10.230;2022-12-18T16:44:45;7.10;99.90
45765;DHT22;31474;45.332;10.230;2022-12-18T16:47:11;7.10;99.90
45765;DHT22;31474;45.332;10.230;2022-12-18T16:49:37;7.10;99.90
45765;DHT22;31474;45.332;10.230;2022-12-18T16:52:04;7.00;99.90
45765;DHT22;31474;45.332;10.230;2022-12-18T16:54:30;7.00;99.90
45765;DHT22;31474;45.332;10.230;2022-12-18T16:56:56;6.90;99.90
45765;DHT22;31474;45.332;10.230;2022-12-18T16:59:22;6.90;99.90
45765;DHT22;31474;45.332;10.230;2022-12-18T17:01:47;6.90;99.90
45765;DHT22;31474;45.332;10.230;2022-12-18T17:04:13;6.90;99.90
45765;DHT22;31474;45.332;10.230;2022-12-18T17:06:42;7.00;99.90
45765;DHT22;31474;45.332;10.230;2022-12-18T17:09:11;7.00;99.90
45765;DHT22;31474;45.332;10.230;2022-12-18T17:11:39;7.00;99.90
45765;DHT22;31474;45.332;10.230;2022-12-18T17:14:23;7.00;99.90
45765;DHT22;31474;45.332;10.230;2022-12-18T17:16:50;7.10;99.90
45765;DHT22;31474;45.332;10.230;2022-12-18T17:19:15;7.10;99.90
45765;DHT22;31474;45.332;10.230;2022-12-18T17:21:42;7.10;99.90
45765;DHT22;31474;45.332;10.230;2022-12-18T17:24:09;7.00;99.90
45765;DHT22;31474;45.332;10.230;2022-12-18T17:26:35;7.00;99.90
45765;DHT22;31474;45.332;10.230;2022-12-18T17:29:01;7.00;99.90
45765;DHT22;31474;45.332;10.230;2022-12-18T17:31:29;7.00;99.90
45765;DHT22;31474;45.332;10.230;2022-12-18T17:33:56;6.90;99.90